Smyrna Airport
KMQY : now visible

Airfield :











YOU CAN JOIN US ON...

 
LOGIN :

Register | Disclaimer

   EN    FR    IT 

 









Legend :    VFR   Marginal VFR   IFR   Intensive IFR   Very Intensive IFR
Visi :
Ceiling :
>= 8 km
>= 3000ft
5 to 8 km
1000 to 3000 ft
1500m to 5 km
500 to 1000 ft
800 to 1500m
200 to 500 ft
< 800m
< 200 ft
Symbols :   Thunderstorms  Fog  Heavy snow  Heavy precipitations  Wind > 20 kt







- Airport Elevation : 543 ft


KMQY - Smyrna

CURRENT METAR :
  • 252356Z 19005KT 10SM FEW030 SCT045 19/14 A2973 RMK AO2 SLP964 60000 T01890144 10244 20189 58003

EXPIRED METARs :
  • 252256Z 21007G19KT 10SM SCT026 BKN038 BKN110 20/14 A2974 RMK AO2 RAB17E28 SLP965 P0000 T02000144
  • 252156Z 22008KT 10SM SCT030 BKN120 20/16 A2974 RMK AO2 SLP964 T02000161
  • 252056Z 18008KT 10SM SCT090 20/16 A2975 RMK AO2 RAB1959E46 SLP966 P0000 60000 T02000161 55011

TAF KMQY
Valid from the 26 at 00:00 until the 27 at 00:00 UTC


252352Z 2600/2624 21007G19KT P6SM VCSH SCT026 BKN040 BKN110
TEMPO 2600/2601 5SM -SHRA OVC035
FM260300 22012G18KT P6SM OVC035
TEMPO 2603/2607 VRB15G35KT 2SM TSRA OVC015CB
FM260700 28013G20KT P6SM OVC015
FM261400 33019G27KT P6SM BKN050
KZME FIR / North America



MET'MAP, your aeronautical weather chart ! - Copyright ORBIFLY December 2007 - Disclaimer

ORBIFLY MET'MAP TEAM :

Programming & Development : Alexandra Zaïnal
Concept & Development : Baudouin d'Aumeries
Co-Development & Prog : Marc-Olivier Méhu
Technical & hardware support : Manuel Goepfert

Contact : metmap@orbifly.com




SOURCES & CREDITS :

   NOAA       Earth
Advisory